LFRZ 301030Z AUTO 07013KT 040V100 CAVOK 24/09 Q1017 NOSIG

ElémentsDécodage
LFRZ Station météo située sur l'aérodrome de SAINT-NAZAIRE Montoir
301030Z émis le 30 du mois à 10h30 UTC
AUTO Bulletin édité par un automate
07013KT vent du 070°, 13 noeuds
040V100 vent de direction variable entre 040° et 100°
CAVOK Ceiling And Visibility OK
- Visibilité de 10 Km ou plus
- Pas de nuage au-dessous de 1500m ou au-dessous de l'altitude minimale du secteur la plus élevée (si>1500m) et absence de CB
- pas de temps présent significatif
24/09 température 24°C, point de rosée 09°C
 soit une humidité relative de 39%
Q1017 la pression au niveau de la mer (QNH) est de 1017 hPa
NOSIG Pas de changement significatif prévu au cours des deux heures suivant l'heure de l'observation